Pilgrim Gardens, Pennsylvania
Current Conditions -  °F | °C
As of 5:54 PM on Thursday 20 Nov 2014 (Local Time) from KPHL Reporting Station
Scattered Clouds Scattered Clouds  
Wind Chill: 38°   Ceiling: Unl
Heat Index: 44°   Visibility: 10mi
Dew Point: 19°   Wind: 12mph
Humidity: 37%   Direction: 300°WNW
Pressure: 29.95"   Gusts: NA
Location:  39.9501°N, 75.304°W
Report Text: KPHL 202254Z 30010KT 10SM SCT070 07/M07 A2995 RMK AO2 SLP141 T00671072
Loading
Personal Weather Stations






























Interactive Weather Map New forecast layout! Learn more

10-Day Weather Forecast

Advertisements
Track Severe Weather on mobile